Huvudsida
METAR-TAF:

METAR-TAF

Flygplatser :

Kuopio flygplats

Kuopio, Finland

latitud: 63-01N, longitud: 027-48E, höjd: 98 m

Aktuellt väderrapport

Denna rapport gjordes för 15 minuter sedan, klockan 00:50 UTC
Vind 7 kt från syd/sydost
Temperatur 0°C
Fuktighet 74%
Tryck 1026 hPa
Sikt 10 km eller mer
Inga moln under 1 500 m eller inga cumulonimbus

METAR: EFKU 210050Z AUTO 15007KT CAVOK 00/M04 Q1026

Tid: 04:05 (01:05 UTC)

Väderprognos

Denna rapport gjordes för 1 timme och 34 minuter sedan, klockan 23:31 UTC
Prognos gäller från 21 kl. 00 UTC till 21 kl. 24 UTC
Vind 4 kt från syd
Sikt 10 km eller mer
Inga moln under 1 500 m eller inga cumulonimbus
Blir
från 21 kl. 06 UTC till 21 kl. 08 UTC
Vind 12 kt från sydväst
Temporärt
från 21 kl. 20 UTC till 21 kl. 24 UTC
Sikt: 6000 m
lätt regn

TAF: EFKU 202331Z 2100/2124 18004KT CAVOK BECMG 2106/2108 22012KT TEMPO 2120/2124 6000 -RA

Aktuella väderrapporter och prognoser från 4000 flygplatser (METAR- och TAF-rapporter).

De tillgängliga stationerna syns som gula och röda prickar på kartan.

För musen över prickarna för att se namnen på stationerna.

Klicka sedan för att få väderrapporter och prognoser.

För att ändra kartan: Klicka på de gröna knapparna med ett svart kors på för att zooma in; den gröna knappen med ett streck på för att zooma ut; eller på de gröna pilarna för angränsande kartor.


METAR-TAF: